createdAt,value
2022-11-12T00:01:01.798Z,1023.18
2022-11-12T00:03:34.640Z,1023.19
2022-11-12T00:06:07.748Z,1023.19
2022-11-12T00:08:40.764Z,1023.19
2022-11-12T00:11:13.926Z,1023.19
2022-11-12T00:13:46.775Z,1023.19
2022-11-12T00:16:19.774Z,1023.18
2022-11-12T00:18:52.794Z,1023.18
2022-11-12T00:21:25.785Z,1023.19
2022-11-12T00:23:58.644Z,1023.21
2022-11-12T00:26:31.844Z,1023.20
2022-11-12T00:29:04.817Z,1023.18
2022-11-12T00:31:37.872Z,1023.16
2022-11-12T00:34:10.698Z,1023.13
2022-11-12T00:36:43.848Z,1023.12
2022-11-12T00:39:18.073Z,1023.10
2022-11-12T00:41:51.859Z,1023.10
2022-11-12T00:44:24.827Z,1023.11
2022-11-12T00:46:57.781Z,1023.12
2022-11-12T00:49:30.727Z,1023.13
2022-11-12T00:52:03.776Z,1023.13
2022-11-12T00:54:36.858Z,1023.15
2022-11-12T00:57:09.742Z,1023.16
2022-11-12T00:59:42.879Z,1023.16
2022-11-12T01:02:15.758Z,1023.15
2022-11-12T01:04:48.934Z,1023.14
2022-11-12T01:07:22.744Z,1023.15
2022-11-12T01:09:55.901Z,1023.17
2022-11-12T01:12:28.971Z,1023.17
2022-11-12T01:15:01.883Z,1023.18
2022-11-12T01:17:34.752Z,1023.17
2022-11-12T01:20:07.791Z,1023.18
2022-11-12T01:22:40.774Z,1023.19
2022-11-12T01:25:17.988Z,1023.19
2022-11-12T01:27:52.020Z,1023.18
2022-11-12T01:30:24.957Z,1023.16
2022-11-12T01:32:57.961Z,1023.15
2022-11-12T01:35:30.908Z,1023.15
2022-11-12T01:38:03.810Z,1023.15
2022-11-12T01:40:36.613Z,1023.14
2022-11-12T01:43:09.887Z,1023.13
2022-11-12T01:45:42.939Z,1023.11
2022-11-12T01:48:15.898Z,1023.09
2022-11-12T01:50:48.965Z,1023.08
2022-11-12T01:53:21.864Z,1023.07
2022-11-12T01:55:54.938Z,1023.05
2022-11-12T01:58:28.387Z,1023.05
2022-11-12T02:01:01.073Z,1023.05
2022-11-12T02:03:33.843Z,1023.05
2022-11-12T02:06:06.972Z,1023.05
2022-11-12T02:08:39.867Z,1023.03
2022-11-12T02:11:12.896Z,1023.03
2022-11-12T02:13:49.012Z,1023.03
2022-11-12T02:16:22.001Z,1023.06
2022-11-12T02:18:54.909Z,1023.07
2022-11-12T02:21:41.930Z,1023.09
2022-11-12T02:24:14.894Z,1023.10
2022-11-12T02:26:50.937Z,1023.09
2022-11-12T02:29:24.035Z,1023.09
2022-11-12T02:31:56.869Z,1023.06
2022-11-12T02:34:29.942Z,1023.05
2022-11-12T02:37:02.887Z,1023.02
2022-11-12T02:39:35.904Z,1023.01
2022-11-12T02:42:09.058Z,1023.00
2022-11-12T02:44:42.066Z,1023.00
2022-11-12T02:47:15.017Z,1022.98
2022-11-12T02:49:47.960Z,1022.97
2022-11-12T02:52:21.039Z,1022.95
2022-11-12T02:54:53.941Z,1022.93
2022-11-12T02:57:26.928Z,1022.91
2022-11-12T03:00:00.105Z,1022.90
2022-11-12T03:02:32.964Z,1022.87
2022-11-12T03:05:05.997Z,1022.85
2022-11-12T03:07:39.045Z,1022.84
2022-11-12T03:10:12.040Z,1022.82
2022-11-12T03:12:44.997Z,1022.82
2022-11-12T03:15:18.218Z,1022.81
2022-11-12T03:17:51.009Z,1022.82
2022-11-12T03:20:24.097Z,1022.85
2022-11-12T03:22:59.948Z,1022.85
2022-11-12T03:25:32.872Z,1022.85
2022-11-12T03:28:06.003Z,1022.85
2022-11-12T03:30:39.190Z,1022.85
2022-11-12T03:33:11.949Z,1022.83
2022-11-12T03:35:45.077Z,1022.81
2022-11-12T03:38:17.991Z,1022.79
2022-11-12T03:40:51.106Z,1022.76
2022-11-12T03:43:24.004Z,1022.77
2022-11-12T03:45:57.217Z,1022.77
2022-11-12T03:48:30.107Z,1022.76
2022-11-12T03:51:03.073Z,1022.77
2022-11-12T03:53:36.117Z,1022.77
2022-11-12T03:56:09.123Z,1022.78
2022-11-12T03:58:42.106Z,1022.78
2022-11-12T04:01:15.210Z,1022.78
2022-11-12T04:03:48.130Z,1022.77
2022-11-12T04:06:21.000Z,1022.76
2022-11-12T04:08:54.129Z,1022.75
2022-11-12T04:11:27.050Z,1022.73
2022-11-12T04:13:59.887Z,1022.70
2022-11-12T04:16:33.264Z,1022.68
2022-11-12T04:19:06.113Z,1022.67
2022-11-12T04:21:39.146Z,1022.65
2022-11-12T04:24:12.059Z,1022.63
2022-11-12T04:26:45.036Z,1022.63
2022-11-12T04:29:18.181Z,1022.62
2022-11-12T04:31:51.195Z,1022.62
2022-11-12T04:34:24.236Z,1022.62
2022-11-12T04:36:57.144Z,1022.63
2022-11-12T04:39:30.174Z,1022.64
2022-11-12T04:42:03.064Z,1022.66
2022-11-12T04:44:36.153Z,1022.64
2022-11-12T04:47:09.336Z,1022.65
2022-11-12T04:49:42.207Z,1022.65
2022-11-12T04:52:15.102Z,1022.64
2022-11-12T04:54:48.160Z,1022.62
2022-11-12T04:57:21.081Z,1022.61
2022-11-12T04:59:54.190Z,1022.59
2022-11-12T05:02:27.262Z,1022.60
2022-11-12T05:05:00.231Z,1022.61
2022-11-12T05:07:33.201Z,1022.63
2022-11-12T05:10:06.122Z,1022.65
2022-11-12T05:12:39.195Z,1022.66
2022-11-12T05:15:12.201Z,1022.67
2022-11-12T05:17:48.320Z,1022.68
2022-11-12T05:20:21.217Z,1022.69
2022-11-12T05:23:06.227Z,1022.71
2022-11-12T05:25:27.177Z,1022.72
2022-11-12T05:28:00.259Z,1022.73
2022-11-12T05:30:33.179Z,1022.76
2022-11-12T05:33:06.403Z,1022.78
2022-11-12T05:35:39.163Z,1022.80
2022-11-12T05:38:12.268Z,1022.83
2022-11-12T05:40:45.199Z,1022.84
2022-11-12T05:43:18.284Z,1022.84
2022-11-12T05:45:51.187Z,1022.86
2022-11-12T05:48:24.805Z,1022.87
2022-11-12T05:51:13.576Z,1022.89
2022-11-12T05:53:30.208Z,1022.91
2022-11-12T05:56:03.189Z,1022.91
2022-11-12T05:58:36.273Z,1022.93
2022-11-12T06:01:09.199Z,1022.94
2022-11-12T06:03:48.372Z,1022.96
2022-11-12T06:06:21.139Z,1022.96
2022-11-12T06:08:54.304Z,1022.97
2022-11-12T06:11:27.203Z,1022.97
2022-11-12T06:14:00.193Z,1022.97
2022-11-12T06:16:33.194Z,1022.98
2022-11-12T06:19:06.356Z,1022.99
2022-11-12T06:21:39.382Z,1023.01
2022-11-12T06:24:12.298Z,1023.03
2022-11-12T06:26:45.321Z,1023.04
2022-11-12T06:29:18.209Z,1023.04
2022-11-12T06:31:51.237Z,1023.04
2022-11-12T06:34:24.452Z,1023.06
2022-11-12T06:36:57.374Z,1023.06
2022-11-12T06:39:30.326Z,1023.06
2022-11-12T06:42:03.364Z,1023.07
2022-11-12T06:44:36.348Z,1023.07
2022-11-12T06:47:09.382Z,1023.06
2022-11-12T06:49:56.333Z,1023.08
2022-11-12T06:52:29.260Z,1023.09
2022-11-12T06:55:02.305Z,1023.09
2022-11-12T06:57:35.175Z,1023.09
2022-11-12T07:00:08.341Z,1023.09
2022-11-12T07:02:41.400Z,1023.11
2022-11-12T07:05:14.520Z,1023.11
2022-11-12T07:07:47.693Z,1023.11
2022-11-12T07:10:21.398Z,1023.10
2022-11-12T07:12:54.369Z,1023.12
2022-11-12T07:15:27.110Z,1023.12
2022-11-12T07:18:00.240Z,1023.13
2022-11-12T07:20:33.394Z,1023.13
2022-11-12T07:23:06.404Z,1023.13
2022-11-12T07:25:39.035Z,1023.13
2022-11-12T07:28:12.312Z,1023.13
2022-11-12T07:30:45.359Z,1023.13
2022-11-12T07:33:18.337Z,1023.12
2022-11-12T07:35:51.437Z,1023.10
2022-11-12T07:38:24.308Z,1023.09
2022-11-12T07:40:57.161Z,1023.09
2022-11-12T07:43:30.229Z,1023.09
2022-11-12T07:46:09.093Z,1023.11
2022-11-12T07:48:36.158Z,1023.11
2022-11-12T07:51:09.382Z,1023.12
2022-11-12T07:53:42.367Z,1023.12
2022-11-12T07:56:15.357Z,1023.11
2022-11-12T07:58:48.425Z,1023.11
2022-11-12T08:01:21.535Z,1023.11
2022-11-12T08:03:54.293Z,1023.09
2022-11-12T08:06:27.495Z,1023.10
2022-11-12T08:09:00.291Z,1023.09
2022-11-12T08:11:33.452Z,1023.10
2022-11-12T08:14:07.431Z,1023.11
2022-11-12T08:16:40.459Z,1023.13
2022-11-12T08:19:13.111Z,1023.13
2022-11-12T08:21:46.617Z,1023.14
2022-11-12T08:24:19.137Z,1023.17
2022-11-12T08:26:52.319Z,1023.19
2022-11-12T08:29:25.408Z,1023.22
2022-11-12T08:31:58.460Z,1023.21
2022-11-12T08:34:31.558Z,1023.20
2022-11-12T08:37:04.653Z,1023.21
2022-11-12T08:39:37.440Z,1023.20
2022-11-12T08:42:10.139Z,1023.21
2022-11-12T08:44:43.314Z,1023.20
2022-11-12T08:47:16.448Z,1023.19
2022-11-12T08:49:49.553Z,1023.21
2022-11-12T08:52:22.668Z,1023.23
2022-11-12T08:54:55.492Z,1023.25
2022-11-12T08:57:28.190Z,1023.25
2022-11-12T09:00:01.239Z,1023.25
2022-11-12T09:02:34.515Z,1023.24
2022-11-12T09:05:07.610Z,1023.26
2022-11-12T09:07:49.963Z,1023.27
2022-11-12T09:10:13.504Z,1023.26
2022-11-12T09:12:46.454Z,1023.27
2022-11-12T09:17:52.505Z,1023.28
2022-11-12T09:20:25.544Z,1023.28
2022-11-12T09:22:58.779Z,1023.27
2022-11-12T09:25:31.617Z,1023.26
2022-11-12T09:28:04.618Z,1023.26
2022-11-12T09:30:37.361Z,1023.25
2022-11-12T09:33:10.511Z,1023.24
2022-11-12T09:35:43.543Z,1023.25
2022-11-12T09:38:16.586Z,1023.26
2022-11-12T09:40:49.342Z,1023.25
2022-11-12T09:43:22.244Z,1023.25
2022-11-12T09:46:13.966Z,1023.25
2022-11-12T09:48:28.755Z,1023.23
2022-11-12T09:51:01.451Z,1023.21
2022-11-12T09:53:34.697Z,1023.21
2022-11-12T09:56:07.699Z,1023.20
2022-11-12T09:58:40.456Z,1023.20
2022-11-12T10:01:13.644Z,1023.20
2022-11-12T10:03:46.543Z,1023.19
2022-11-12T10:06:19.690Z,1023.18
2022-11-12T10:08:52.778Z,1023.16
2022-11-12T10:11:25.595Z,1023.15
2022-11-12T10:13:58.680Z,1023.13
2022-11-12T10:16:31.716Z,1023.11
2022-11-12T10:19:04.621Z,1023.10
2022-11-12T10:21:37.742Z,1023.08
2022-11-12T10:24:10.765Z,1023.07
2022-11-12T10:26:43.604Z,1023.06
2022-11-12T10:29:16.328Z,1023.05
2022-11-12T10:31:49.369Z,1023.03
2022-11-12T10:34:22.714Z,1023.01
2022-11-12T10:36:55.749Z,1023.00
2022-11-12T10:39:28.842Z,1022.98
2022-11-12T10:42:01.760Z,1022.97
2022-11-12T10:44:34.351Z,1022.95
2022-11-12T10:47:07.361Z,1022.95
2022-11-12T10:49:40.651Z,1022.93
2022-11-12T10:52:13.588Z,1022.92
2022-11-12T10:54:50.970Z,1022.91
2022-11-12T10:57:19.617Z,1022.91
2022-11-12T10:59:52.363Z,1022.89
2022-11-12T11:02:25.462Z,1022.87
2022-11-12T11:04:58.759Z,1022.86
2022-11-12T11:07:31.413Z,1022.85
2022-11-12T11:10:04.645Z,1022.83
2022-11-12T11:12:37.661Z,1022.84
2022-11-12T11:15:10.395Z,1022.81
2022-11-12T11:17:43.805Z,1022.79
2022-11-12T11:20:16.675Z,1022.79
2022-11-12T11:22:49.401Z,1022.76
2022-11-12T11:25:22.803Z,1022.75
2022-11-12T11:27:55.525Z,1022.74
2022-11-12T11:30:28.753Z,1022.75
2022-11-12T11:33:01.784Z,1022.74
2022-11-12T11:35:34.403Z,1022.74
2022-11-12T11:38:07.401Z,1022.73
2022-11-12T11:40:40.550Z,1022.71
2022-11-12T11:43:13.695Z,1022.71
2022-11-12T11:45:46.788Z,1022.70
2022-11-12T11:48:19.704Z,1022.68
2022-11-12T11:50:52.841Z,1022.67
2022-11-12T11:53:25.809Z,1022.65
2022-11-12T11:55:58.905Z,1022.64
2022-11-12T11:58:31.427Z,1022.62
2022-11-12T12:01:04.449Z,1022.62
2022-11-12T12:03:37.661Z,1022.60
2022-11-12T12:06:10.452Z,1022.59
2022-11-12T12:08:43.639Z,1022.58
2022-11-12T12:11:16.584Z,1022.57
2022-11-12T12:13:49.508Z,1022.54
2022-11-12T12:16:36.382Z,1022.52
2022-11-12T12:19:09.620Z,1022.51
2022-11-12T12:21:42.757Z,1022.48
2022-11-12T12:24:15.869Z,1022.45
2022-11-12T12:26:49.078Z,1022.41
2022-11-12T12:29:22.842Z,1022.38
2022-11-12T12:31:55.864Z,1022.34
2022-11-12T12:34:28.791Z,1022.32
2022-11-12T12:37:01.902Z,1022.29
2022-11-12T12:39:34.820Z,1022.26
2022-11-12T12:42:07.946Z,1022.25
2022-11-12T12:44:40.947Z,1022.22
2022-11-12T12:47:13.780Z,1022.20
2022-11-12T12:49:46.577Z,1022.17
2022-11-12T12:52:19.923Z,1022.13
2022-11-12T12:54:52.859Z,1022.11
2022-11-12T12:57:25.840Z,1022.08
2022-11-12T12:59:58.786Z,1022.06
2022-11-12T13:02:31.959Z,1022.04
2022-11-12T13:05:04.762Z,1022.00
2022-11-12T13:07:37.681Z,1021.97
2022-11-12T13:10:10.805Z,1021.95
2022-11-12T13:12:43.931Z,1021.93
2022-11-12T13:15:16.589Z,1021.90
2022-11-12T13:17:49.823Z,1021.89
2022-11-12T13:20:22.941Z,1021.89
2022-11-12T13:22:55.813Z,1021.88
2022-11-12T13:25:28.719Z,1021.87
2022-11-12T13:28:01.799Z,1021.85
2022-11-12T13:30:34.782Z,1021.84
2022-11-12T13:33:11.688Z,1021.82
2022-11-12T13:35:41.025Z,1021.79
2022-11-12T13:38:13.598Z,1021.77
2022-11-12T13:40:46.774Z,1021.75
2022-11-12T13:43:20.093Z,1021.72
2022-11-12T13:45:52.698Z,1021.70
2022-11-12T13:48:26.007Z,1021.68
2022-11-12T13:50:58.911Z,1021.67
2022-11-12T13:53:31.642Z,1021.66
2022-11-12T13:56:04.674Z,1021.65
2022-11-12T13:58:38.110Z,1021.64
2022-11-12T14:01:10.955Z,1021.62
2022-11-12T14:03:43.784Z,1021.61
2022-11-12T14:06:17.029Z,1021.58
2022-11-12T14:08:49.956Z,1021.56
2022-11-12T14:11:22.635Z,1021.54
2022-11-12T14:13:56.047Z,1021.51
2022-11-12T14:16:28.940Z,1021.49
2022-11-12T14:19:02.116Z,1021.47
2022-11-12T14:21:36.043Z,1021.47
2022-11-12T14:24:09.031Z,1021.46
2022-11-12T14:26:42.110Z,1021.44
2022-11-12T14:29:15.058Z,1021.44
2022-11-12T14:31:48.082Z,1021.43
2022-11-12T14:34:21.057Z,1021.40
2022-11-12T14:36:53.811Z,1021.38
2022-11-12T14:39:27.107Z,1021.37
2022-11-12T14:42:00.021Z,1021.37
2022-11-12T14:44:33.147Z,1021.34
2022-11-12T14:47:05.870Z,1021.32
2022-11-12T14:49:44.041Z,1021.30
2022-11-12T14:52:11.994Z,1021.28
2022-11-12T14:54:45.113Z,1021.26
2022-11-12T14:57:17.977Z,1021.23
2022-11-12T14:59:51.275Z,1021.23
2022-11-12T15:02:42.723Z,1021.21
2022-11-12T15:04:57.141Z,1021.19
2022-11-12T15:07:30.144Z,1021.18
2022-11-12T15:10:02.878Z,1021.17
2022-11-12T15:12:36.018Z,1021.17
2022-11-12T15:15:09.152Z,1021.16
2022-11-12T15:17:42.141Z,1021.15
2022-11-12T15:20:15.020Z,1021.15
2022-11-12T15:22:48.015Z,1021.15
2022-11-12T15:25:21.197Z,1021.16
2022-11-12T15:27:54.028Z,1021.15
2022-11-12T15:30:27.020Z,1021.11
2022-11-12T15:33:00.164Z,1021.09
2022-11-12T15:35:33.144Z,1021.07
2022-11-12T15:38:06.119Z,1021.05
2022-11-12T15:40:38.863Z,1021.06
2022-11-12T15:43:12.098Z,1021.05
2022-11-12T15:45:45.259Z,1021.03
2022-11-12T15:48:18.174Z,1021.02
2022-11-12T15:50:51.089Z,1021.01
2022-11-12T15:53:24.324Z,1021.00
2022-11-12T15:56:00.115Z,1020.97
2022-11-12T15:58:33.135Z,1020.95
2022-11-12T16:01:06.514Z,1020.92
2022-11-12T16:03:39.158Z,1020.90
2022-11-12T16:06:11.994Z,1020.88
2022-11-12T16:08:45.075Z,1020.85
2022-11-12T16:11:17.843Z,1020.82
2022-11-12T16:13:51.226Z,1020.77
2022-11-12T16:16:24.285Z,1020.74
2022-11-12T16:18:57.202Z,1020.73
2022-11-12T16:21:30.179Z,1020.71
2022-11-12T16:24:03.062Z,1020.70
2022-11-12T16:26:36.187Z,1020.68
2022-11-12T16:29:09.121Z,1020.66
2022-11-12T16:31:42.382Z,1020.65
2022-11-12T16:34:14.882Z,1020.63
2022-11-12T16:36:48.257Z,1020.61
2022-11-12T16:39:21.111Z,1020.60
2022-11-12T16:41:54.155Z,1020.58
2022-11-12T16:44:27.270Z,1020.57
2022-11-12T16:47:00.361Z,1020.56
2022-11-12T16:49:38.393Z,1020.52
2022-11-12T16:52:06.035Z,1020.52
2022-11-12T16:54:39.190Z,1020.51
2022-11-12T16:57:12.153Z,1020.50
2022-11-12T16:59:45.278Z,1020.48
2022-11-12T17:02:18.343Z,1020.46
2022-11-12T17:04:51.256Z,1020.45
2022-11-12T17:07:23.935Z,1020.44
2022-11-12T17:09:57.000Z,1020.43
2022-11-12T17:12:30.308Z,1020.46
2022-11-12T17:15:03.197Z,1020.47
2022-11-12T17:17:36.361Z,1020.48
2022-11-12T17:20:08.928Z,1020.47
2022-11-12T17:22:41.913Z,1020.43
2022-11-12T17:25:15.205Z,1020.41
2022-11-12T17:27:48.315Z,1020.39
2022-11-12T17:30:21.263Z,1020.37
2022-11-12T17:32:54.375Z,1020.35
2022-11-12T17:35:26.946Z,1020.33
2022-11-12T17:38:00.150Z,1020.30
2022-11-12T17:40:32.948Z,1020.26
2022-11-12T17:43:06.003Z,1020.23
2022-11-12T17:45:39.132Z,1020.20
2022-11-12T17:48:12.344Z,1020.17
2022-11-12T17:50:45.314Z,1020.17
2022-11-12T17:53:18.190Z,1020.16
2022-11-12T17:55:51.359Z,1020.16
2022-11-12T17:58:24.301Z,1020.13
2022-11-12T18:00:57.425Z,1020.13
2022-11-12T18:03:30.492Z,1020.13
2022-11-12T18:06:03.152Z,1020.12
2022-11-12T18:08:36.133Z,1020.13
2022-11-12T18:11:08.996Z,1020.12
2022-11-12T18:13:42.040Z,1020.11
2022-11-12T18:16:15.210Z,1020.10
2022-11-12T18:18:48.194Z,1020.10
2022-11-12T18:21:21.091Z,1020.11
2022-11-12T18:23:54.102Z,1020.11
2022-11-12T18:26:27.268Z,1020.10
2022-11-12T18:29:00.060Z,1020.07
2022-11-12T18:31:33.026Z,1020.06
2022-11-12T18:34:06.235Z,1020.06
2022-11-12T18:36:39.030Z,1020.04
2022-11-12T18:39:12.037Z,1020.04
2022-11-12T18:41:45.156Z,1020.04
2022-11-12T18:44:21.967Z,1020.02
2022-11-12T18:46:51.112Z,1020.01
2022-11-12T18:49:24.256Z,1020.00
2022-11-12T18:51:57.240Z,1019.99
2022-11-12T18:54:30.166Z,1019.98
2022-11-12T18:57:03.079Z,1019.97
2022-11-12T18:59:36.236Z,1019.95
2022-11-12T19:02:09.150Z,1019.92
2022-11-12T19:04:45.388Z,1019.92
2022-11-12T19:07:15.293Z,1019.89
2022-11-12T19:09:48.186Z,1019.88
2022-11-12T19:12:21.457Z,1019.86
2022-11-12T19:14:54.102Z,1019.85
2022-11-12T19:17:31.059Z,1019.83
2022-11-12T19:20:00.232Z,1019.82
2022-11-12T19:22:33.150Z,1019.81
2022-11-12T19:25:06.195Z,1019.80
2022-11-12T19:27:39.498Z,1019.79
2022-11-12T19:30:12.399Z,1019.79
2022-11-12T19:32:45.528Z,1019.78
2022-11-12T19:35:18.560Z,1019.78
2022-11-12T19:37:51.405Z,1019.76
2022-11-12T19:40:24.492Z,1019.72
2022-11-12T19:42:57.486Z,1019.68
2022-11-12T19:45:30.512Z,1019.65
2022-11-12T19:48:03.448Z,1019.62
2022-11-12T19:50:36.438Z,1019.59
2022-11-12T19:53:09.440Z,1019.56
2022-11-12T19:55:42.533Z,1019.54
2022-11-12T19:58:15.521Z,1019.51
2022-11-12T20:00:48.493Z,1019.49
2022-11-12T20:03:21.477Z,1019.49
2022-11-12T20:05:54.652Z,1019.48
2022-11-12T20:08:27.429Z,1019.47
2022-11-12T20:11:00.467Z,1019.46
2022-11-12T20:13:33.487Z,1019.47
2022-11-12T20:16:06.477Z,1019.45
2022-11-12T20:18:39.374Z,1019.45
2022-11-12T20:21:12.576Z,1019.45
2022-11-12T20:23:45.477Z,1019.44
2022-11-12T20:26:18.525Z,1019.44
2022-11-12T20:28:51.532Z,1019.43
2022-11-12T20:31:24.504Z,1019.42
2022-11-12T20:33:57.637Z,1019.40
2022-11-12T20:36:30.623Z,1019.39
2022-11-12T20:39:03.602Z,1019.38
2022-11-12T20:41:36.389Z,1019.34
2022-11-12T20:44:09.377Z,1019.33
2022-11-12T20:46:42.240Z,1019.32
2022-11-12T20:49:15.507Z,1019.29
2022-11-12T20:51:48.653Z,1019.30
2022-11-12T20:54:21.626Z,1019.27
2022-11-12T20:56:54.576Z,1019.27
2022-11-12T20:59:27.549Z,1019.26
2022-11-12T21:02:00.533Z,1019.24
2022-11-12T21:04:33.537Z,1019.23
2022-11-12T21:07:06.867Z,1019.23
2022-11-12T21:09:39.662Z,1019.23
2022-11-12T21:12:12.526Z,1019.21
2022-11-12T21:14:50.192Z,1019.19
2022-11-12T21:17:18.567Z,1019.18
2022-11-12T21:19:51.547Z,1019.16
2022-11-12T21:22:24.800Z,1019.16
2022-11-12T21:24:57.672Z,1019.16
2022-11-12T21:27:30.596Z,1019.15
2022-11-12T21:30:03.753Z,1019.15
2022-11-12T21:32:37.618Z,1019.13
2022-11-12T21:35:10.626Z,1019.11
2022-11-12T21:37:45.681Z,1019.09
2022-11-12T21:40:18.476Z,1019.07
2022-11-12T21:42:51.350Z,1019.05
2022-11-12T21:45:24.655Z,1019.02
2022-11-12T21:47:57.612Z,1019.01
2022-11-12T21:50:30.393Z,1018.99
2022-11-12T21:53:03.597Z,1018.98
2022-11-12T21:55:36.471Z,1018.95
2022-11-12T21:58:09.323Z,1018.94
2022-11-12T22:00:42.943Z,1018.94
2022-11-12T22:03:15.530Z,1018.93
2022-11-12T22:05:48.533Z,1018.92
2022-11-12T22:08:21.564Z,1018.93
2022-11-12T22:10:54.517Z,1018.93
2022-11-12T22:13:27.882Z,1018.91
2022-11-12T22:16:00.438Z,1018.90
2022-11-12T22:18:33.512Z,1018.90
2022-11-12T22:21:06.532Z,1018.90
2022-11-12T22:23:39.508Z,1018.88
2022-11-12T22:26:12.773Z,1018.87
2022-11-12T22:28:45.555Z,1018.84
2022-11-12T22:31:18.516Z,1018.80
2022-11-12T22:33:51.763Z,1018.77
2022-11-12T22:36:24.675Z,1018.73
2022-11-12T22:38:57.945Z,1018.71
2022-11-12T22:41:30.538Z,1018.67
2022-11-12T22:44:03.824Z,1018.64
2022-11-12T22:46:36.516Z,1018.60
2022-11-12T22:49:09.775Z,1018.56
2022-11-12T22:51:42.716Z,1018.54
2022-11-12T22:54:15.872Z,1018.51
2022-11-12T22:56:48.747Z,1018.46
2022-11-12T22:59:21.764Z,1018.42
2022-11-12T23:01:54.759Z,1018.37
2022-11-12T23:04:27.835Z,1018.34
2022-11-12T23:07:00.799Z,1018.30
2022-11-12T23:09:33.901Z,1018.27
2022-11-12T23:12:09.645Z,1018.26
2022-11-12T23:14:42.833Z,1018.25
2022-11-12T23:17:15.851Z,1018.22
2022-11-12T23:19:48.788Z,1018.21
2022-11-12T23:22:21.734Z,1018.19
2022-11-12T23:24:54.911Z,1018.17
2022-11-12T23:27:27.862Z,1018.15
2022-11-12T23:30:00.827Z,1018.12
2022-11-12T23:32:33.786Z,1018.11
2022-11-12T23:35:06.737Z,1018.10
2022-11-12T23:37:39.873Z,1018.09
2022-11-12T23:40:12.874Z,1018.06
2022-11-12T23:42:45.788Z,1018.06
2022-11-12T23:45:18.926Z,1018.04
2022-11-12T23:47:51.846Z,1018.02
2022-11-12T23:50:24.872Z,1017.99
2022-11-12T23:52:57.851Z,1017.96
2022-11-12T23:55:34.884Z,1017.93
2022-11-12T23:58:03.838Z,1017.91
